createdAt,value
2019-04-20T00:01:26.213Z,14.11
2019-04-20T00:03:51.949Z,13.92
2019-04-20T00:06:21.631Z,13.92
2019-04-20T00:08:58.741Z,13.58
2019-04-20T00:11:31.022Z,13.77
2019-04-20T00:14:02.019Z,13.72
2019-04-20T00:16:25.164Z,13.82
2019-04-20T00:18:58.333Z,13.66
2019-04-20T00:21:51.995Z,13.86
2019-04-20T00:24:21.577Z,13.85
2019-04-20T00:29:36.708Z,13.67
2019-04-20T00:32:00.556Z,13.57
2019-04-20T00:34:26.452Z,13.49
2019-04-20T00:36:49.819Z,13.53
2019-04-20T00:39:20.229Z,13.55
2019-04-20T00:41:57.132Z,13.38
2019-04-20T00:44:27.312Z,13.33
2019-04-20T00:47:04.484Z,13.31
2019-04-20T00:49:36.350Z,13.10
2019-04-20T00:52:18.679Z,13.38
2019-04-20T00:54:22.666Z,13.38
2019-04-20T00:56:52.049Z,13.29
2019-04-20T00:59:35.499Z,13.46
2019-04-20T01:02:12.616Z,13.13
2019-04-20T01:04:43.233Z,13.22
2019-04-20T01:07:17.590Z,13.20
2019-04-20T01:09:54.225Z,13.23
2019-04-20T01:12:26.773Z,13.17
2019-04-20T01:14:59.172Z,13.29
2019-04-20T01:17:24.468Z,13.19
2019-04-20T01:19:54.134Z,13.21
2019-04-20T01:22:25.438Z,13.27
2019-04-20T01:24:55.023Z,13.02
2019-04-20T01:27:41.197Z,12.80
2019-04-20T01:30:07.009Z,12.86
2019-04-20T01:32:36.064Z,12.76
2019-04-20T01:35:14.042Z,12.80
2019-04-20T01:37:40.627Z,12.82
2019-04-20T01:40:01.113Z,12.69
2019-04-20T01:42:30.047Z,12.98
2019-04-20T01:45:00.290Z,13.18
2019-04-20T01:47:38.721Z,13.12
2019-04-20T01:50:08.548Z,13.10
2019-04-20T01:52:49.356Z,13.13
2019-04-20T01:55:42.478Z,13.03
2019-04-20T01:58:15.803Z,13.06
2019-04-20T02:00:44.023Z,13.22
2019-04-20T02:03:36.969Z,13.16
2019-04-20T02:06:10.040Z,13.19
2019-04-20T02:08:34.301Z,12.97
2019-04-20T02:11:05.775Z,13.03
2019-04-20T02:13:42.146Z,12.89
2019-04-20T02:16:18.332Z,12.95
2019-04-20T02:18:44.207Z,12.94
2019-04-20T02:21:24.163Z,13.02
2019-04-20T02:23:47.431Z,12.78
2019-04-20T02:26:09.217Z,12.79
2019-04-20T02:29:05.942Z,12.56
2019-04-20T02:34:33.536Z,12.50
2019-04-20T02:37:13.959Z,12.60
2019-04-20T02:39:45.557Z,12.27
2019-04-20T02:44:48.086Z,12.64
2019-04-20T02:47:25.807Z,12.55
2019-04-20T02:49:52.385Z,12.47
2019-04-20T02:54:46.768Z,12.33
2019-04-20T02:57:18.678Z,12.44
2019-04-20T03:00:01.218Z,12.54
2019-04-20T03:02:06.050Z,12.36
2019-04-20T03:04:25.753Z,12.41
2019-04-20T03:07:05.203Z,12.32
2019-04-20T03:09:39.944Z,12.30
2019-04-20T03:12:23.635Z,12.61
2019-04-20T03:14:34.868Z,12.38
2019-04-20T03:17:15.339Z,12.54
2019-04-20T03:19:37.635Z,12.61
2019-04-20T03:22:13.816Z,12.46
2019-04-20T03:24:51.397Z,12.49
2019-04-20T03:27:10.828Z,12.45
2019-04-20T03:29:46.954Z,12.39
2019-04-20T03:37:27.537Z,12.17
2019-04-20T03:39:46.634Z,12.27
2019-04-20T03:42:01.044Z,12.19
2019-04-20T03:44:34.034Z,12.16
2019-04-20T03:47:06.858Z,12.08
2019-04-20T03:49:54.993Z,12.05
2019-04-20T03:52:26.164Z,11.98
2019-04-20T03:54:52.244Z,12.10
2019-04-20T03:57:38.301Z,12.24
2019-04-20T04:00:04.885Z,12.13
2019-04-20T04:02:55.480Z,12.07
2019-04-20T04:05:13.563Z,11.84
2019-04-20T04:07:36.497Z,11.89
2019-04-20T04:10:14.095Z,12.00
2019-04-20T04:13:05.154Z,12.04
2019-04-20T04:15:36.140Z,11.94
2019-04-20T04:18:13.856Z,12.02
2019-04-20T04:20:49.259Z,11.94
2019-04-20T04:23:22.038Z,12.05
2019-04-20T04:25:58.130Z,11.98
2019-04-20T04:28:28.689Z,11.87
2019-04-20T04:31:06.330Z,11.84
2019-04-20T04:35:59.264Z,11.79
2019-04-20T04:38:37.792Z,11.96
2019-04-20T04:43:34.246Z,11.67
2019-04-20T04:45:46.966Z,11.60
2019-04-20T04:48:22.363Z,11.65
2019-04-20T04:50:56.307Z,11.53
2019-04-20T04:53:30.005Z,11.55
2019-04-20T04:55:57.532Z,11.53
2019-04-20T04:58:21.478Z,11.31
2019-04-20T05:00:51.516Z,11.39
2019-04-20T05:03:41.288Z,11.22
2019-04-20T05:06:13.432Z,11.22
2019-04-20T05:08:36.066Z,11.42
2019-04-20T05:10:58.555Z,11.81
2019-04-20T05:13:37.008Z,11.43
2019-04-20T05:16:13.478Z,11.65
2019-04-20T05:18:53.123Z,11.67
2019-04-20T05:21:22.552Z,11.69
2019-04-20T05:23:44.429Z,11.65
2019-04-20T05:26:44.323Z,11.76
2019-04-20T05:29:03.237Z,11.71
2019-04-20T05:31:34.877Z,11.94
2019-04-20T05:34:20.609Z,12.05
2019-04-20T05:36:45.049Z,12.24
2019-04-20T05:39:22.513Z,12.20
2019-04-20T05:41:45.463Z,12.15
2019-04-20T05:44:12.385Z,12.33
2019-04-20T05:46:45.934Z,12.23
2019-04-20T05:49:23.605Z,12.27
2019-04-20T05:51:49.883Z,12.43
2019-04-20T05:54:26.942Z,12.28
2019-04-20T05:56:51.274Z,12.45
2019-04-20T05:59:21.862Z,12.23
2019-04-20T06:02:01.389Z,12.58
2019-04-20T06:04:42.640Z,12.36
2019-04-20T06:06:56.492Z,12.48
2019-04-20T06:09:29.565Z,12.38
2019-04-20T06:12:17.996Z,12.15
2019-04-20T06:14:20.564Z,12.07
2019-04-20T06:17:02.467Z,12.42
2019-04-20T06:19:35.491Z,12.46
2019-04-20T06:22:14.901Z,12.38
2019-04-20T06:24:52.791Z,12.57
2019-04-20T06:27:17.981Z,12.56
2019-04-20T06:29:45.755Z,12.89
2019-04-20T06:32:21.192Z,12.95
2019-04-20T06:34:41.621Z,12.98
2019-04-20T06:37:17.224Z,12.71
2019-04-20T06:39:54.683Z,12.78
2019-04-20T06:42:17.945Z,13.28
2019-04-20T06:44:50.498Z,13.15
2019-04-20T06:47:24.693Z,13.16
2019-04-20T06:49:50.399Z,13.31
2019-04-20T06:52:39.252Z,13.41
2019-04-20T06:55:06.950Z,13.45
2019-04-20T06:57:37.244Z,13.78
2019-04-20T07:02:44.427Z,13.93
2019-04-20T07:05:28.687Z,14.10
2019-04-20T07:07:47.464Z,14.19
2019-04-20T07:10:19.762Z,14.06
2019-04-20T07:12:42.517Z,14.12
2019-04-20T07:15:16.259Z,14.35
2019-04-20T07:17:57.042Z,14.46
2019-04-20T07:20:21.273Z,14.51
2019-04-20T07:23:02.296Z,14.45
2019-04-20T07:25:31.073Z,14.47
2019-04-20T07:27:59.367Z,14.57
2019-04-20T07:30:30.869Z,14.72
2019-04-20T07:33:04.503Z,14.86
2019-04-20T07:35:35.642Z,14.81
2019-04-20T07:40:35.482Z,14.95
2019-04-20T07:43:02.804Z,14.93
2019-04-20T07:45:35.082Z,14.87
2019-04-20T07:48:11.247Z,14.87
2019-04-20T07:50:31.684Z,15.20
2019-04-20T07:53:07.618Z,14.95
2019-04-20T07:55:54.113Z,14.92
2019-04-20T07:58:02.772Z,15.16
2019-04-20T08:00:48.498Z,15.31
2019-04-20T08:03:20.173Z,15.51
2019-04-20T08:05:40.551Z,15.36
2019-04-20T08:08:18.068Z,15.31
2019-04-20T08:10:48.193Z,15.25
2019-04-20T08:15:56.997Z,15.44
2019-04-20T08:18:29.321Z,15.55
2019-04-20T08:20:58.114Z,15.58
2019-04-20T08:23:23.611Z,15.73
2019-04-20T08:25:46.824Z,15.94
2019-04-20T08:28:20.861Z,15.73
2019-04-20T08:31:06.389Z,16.04
2019-04-20T08:33:55.506Z,16.21
2019-04-20T08:36:21.510Z,16.26
2019-04-20T08:41:13.670Z,16.20
2019-04-20T08:43:53.126Z,16.22
2019-04-20T08:46:21.992Z,16.45
2019-04-20T08:48:50.850Z,16.39
2019-04-20T08:51:19.387Z,16.73
2019-04-20T08:53:53.620Z,16.83
2019-04-20T08:56:17.306Z,17.00
2019-04-20T08:58:33.938Z,16.51
2019-04-20T09:01:08.372Z,16.60
2019-04-20T09:03:48.717Z,16.49
2019-04-20T09:06:19.404Z,16.41
2019-04-20T09:08:49.190Z,16.71
2019-04-20T09:11:26.058Z,16.76
2019-04-20T09:13:43.627Z,16.70
2019-04-20T09:16:10.960Z,16.97
2019-04-20T09:18:50.283Z,17.42
2019-04-20T09:21:25.344Z,18.05
2019-04-20T09:24:16.175Z,17.60
2019-04-20T09:26:37.127Z,17.72
2019-04-20T09:29:04.149Z,17.83
2019-04-20T09:31:40.822Z,17.94
2019-04-20T09:34:15.417Z,17.88
2019-04-20T09:36:46.174Z,17.75
2019-04-20T09:39:15.067Z,17.73
2019-04-20T09:41:59.001Z,17.74
2019-04-20T09:44:11.068Z,18.05
2019-04-20T09:46:46.023Z,18.08
2019-04-20T09:49:20.170Z,18.09
2019-04-20T09:51:58.554Z,17.63
2019-04-20T09:54:32.605Z,18.08
2019-04-20T09:57:07.626Z,17.91
2019-04-20T09:59:33.499Z,17.99
2019-04-20T10:01:50.434Z,18.20
2019-04-20T10:04:17.413Z,18.07
2019-04-20T10:06:47.637Z,17.70
2019-04-20T10:09:21.310Z,17.87
2019-04-20T10:11:48.746Z,17.80
2019-04-20T10:14:17.908Z,18.08
2019-04-20T10:16:47.412Z,18.17
2019-04-20T10:19:20.623Z,18.21
2019-04-20T10:21:46.929Z,18.13
2019-04-20T10:24:16.686Z,18.58
2019-04-20T10:26:46.045Z,18.45
2019-04-20T10:29:15.458Z,18.34
2019-04-20T10:31:51.482Z,18.64
2019-04-20T10:34:15.853Z,18.58
2019-04-20T10:36:47.804Z,18.85
2019-04-20T10:39:18.557Z,18.75
2019-04-20T10:41:52.578Z,18.63
2019-04-20T10:44:18.715Z,18.65
2019-04-20T10:46:49.041Z,18.80
2019-04-20T10:49:19.320Z,19.13
2019-04-20T10:51:49.451Z,19.62
2019-04-20T10:54:18.497Z,19.46
2019-04-20T10:56:47.806Z,19.85
2019-04-20T10:59:16.787Z,19.95
2019-04-20T11:01:45.824Z,19.77
2019-04-20T11:04:14.804Z,19.87
2019-04-20T11:06:44.816Z,19.87
2019-04-20T11:09:14.408Z,19.47
2019-04-20T11:11:44.167Z,19.40
2019-04-20T11:14:21.137Z,19.65
2019-04-20T11:16:44.492Z,20.10
2019-04-20T11:19:13.650Z,20.10
2019-04-20T11:21:42.542Z,19.97
2019-04-20T11:24:12.458Z,20.07
2019-04-20T11:26:42.305Z,19.91
2019-04-20T11:29:12.185Z,19.85
2019-04-20T11:31:46.764Z,19.85
2019-04-20T11:34:15.004Z,19.81
2019-04-20T11:36:43.380Z,19.95
2019-04-20T11:39:14.752Z,19.94
2019-04-20T11:41:43.812Z,19.81
2019-04-20T11:44:13.767Z,20.16
2019-04-20T11:46:43.041Z,20.03
2019-04-20T11:49:13.206Z,20.48
2019-04-20T11:51:43.450Z,20.62
2019-04-20T11:54:12.674Z,20.85
2019-04-20T11:56:45.168Z,20.58
2019-04-20T11:59:12.607Z,20.23
2019-04-20T12:01:51.081Z,20.42
2019-04-20T12:04:26.132Z,20.57
2019-04-20T12:06:46.673Z,20.45
2019-04-20T12:09:16.935Z,20.33
2019-04-20T12:11:59.658Z,20.23
2019-04-20T12:14:16.710Z,19.80
2019-04-20T12:16:45.920Z,19.74
2019-04-20T12:19:14.893Z,19.76
2019-04-20T12:21:43.887Z,19.95
2019-04-20T12:24:14.214Z,20.36
2019-04-20T12:26:43.318Z,20.40
2019-04-20T12:29:13.958Z,20.34
2019-04-20T12:31:44.289Z,20.11
2019-04-20T12:34:13.668Z,20.57
2019-04-20T12:36:42.851Z,20.05
2019-04-20T12:39:13.243Z,19.69
2019-04-20T12:41:49.800Z,19.68
2019-04-20T12:44:14.081Z,19.50
2019-04-20T12:46:43.737Z,19.56
2019-04-20T12:49:13.664Z,19.80
2019-04-20T12:51:50.598Z,19.59
2019-04-20T12:54:14.515Z,19.86
2019-04-20T12:56:44.681Z,19.68
2019-04-20T12:59:13.832Z,19.37
2019-04-20T13:01:43.720Z,19.38
2019-04-20T13:04:14.310Z,19.21
2019-04-20T13:06:44.681Z,19.42
2019-04-20T13:09:14.587Z,19.92
2019-04-20T13:11:52.983Z,20.31
2019-04-20T13:14:46.719Z,19.99
2019-04-20T13:17:16.642Z,19.93
2019-04-20T13:19:47.049Z,20.76
2019-04-20T13:22:17.033Z,20.96
2019-04-20T13:24:47.287Z,20.97
2019-04-20T13:27:16.761Z,21.20
2019-04-20T13:29:47.905Z,21.30
2019-04-20T13:32:16.436Z,21.20
2019-04-20T13:34:46.863Z,21.58
2019-04-20T13:37:16.032Z,21.51
2019-04-20T13:39:45.056Z,21.27
2019-04-20T13:42:22.411Z,21.45
2019-04-20T13:44:45.250Z,21.80
2019-04-20T13:47:14.898Z,21.69
2019-04-20T13:49:45.204Z,22.23
2019-04-20T13:52:15.021Z,22.07
2019-04-20T13:54:45.189Z,21.32
2019-04-20T13:57:24.879Z,21.65
2019-04-20T13:59:57.738Z,21.90
2019-04-20T14:02:31.262Z,21.82
2019-04-20T14:05:02.735Z,22.15
2019-04-20T14:07:33.467Z,22.08
2019-04-20T14:10:03.623Z,22.85
2019-04-20T14:12:37.595Z,22.78
2019-04-20T14:15:05.083Z,22.82
2019-04-20T14:17:35.071Z,22.92
2019-04-20T14:20:11.633Z,23.11
2019-04-20T14:22:36.866Z,23.00
2019-04-20T14:25:07.042Z,22.89
2019-04-20T14:27:37.123Z,23.06
2019-04-20T14:30:07.040Z,23.09
2019-04-20T14:32:36.818Z,23.54
2019-04-20T14:35:07.222Z,22.45
2019-04-20T14:37:36.149Z,22.50
2019-04-20T14:40:08.189Z,23.19
2019-04-20T14:42:44.742Z,23.42
2019-04-20T14:45:09.061Z,22.31
2019-04-20T14:47:39.657Z,22.98
2019-04-20T14:50:11.693Z,22.08
2019-04-20T14:52:43.755Z,21.97
2019-04-20T14:55:16.924Z,22.66
2019-04-20T14:57:45.657Z,22.63
2019-04-20T15:00:21.587Z,23.43
2019-04-20T15:02:50.552Z,22.28
2019-04-20T15:05:21.152Z,23.33
2019-04-20T15:07:51.612Z,23.85
2019-04-20T15:10:20.639Z,23.29
2019-04-20T15:12:55.758Z,23.46
2019-04-20T15:15:20.736Z,22.99
2019-04-20T15:17:51.479Z,23.36
2019-04-20T15:20:21.817Z,23.19
2019-04-20T15:22:51.730Z,23.51
2019-04-20T15:25:21.280Z,23.50
2019-04-20T15:27:50.323Z,22.93
2019-04-20T15:30:20.497Z,23.40
2019-04-20T15:32:49.430Z,23.71
2019-04-20T15:35:19.690Z,24.23
2019-04-20T15:37:49.211Z,24.65
2019-04-20T15:40:19.310Z,24.05
2019-04-20T15:42:58.035Z,22.88
2019-04-20T15:45:19.145Z,23.63
2019-04-20T15:47:48.059Z,23.59
2019-04-20T15:50:18.066Z,23.93
2019-04-20T15:52:52.210Z,23.54
2019-04-20T15:55:24.877Z,24.17
2019-04-20T15:57:48.381Z,24.11
2019-04-20T16:00:18.398Z,24.50
2019-04-20T16:02:49.506Z,23.80
2019-04-20T16:05:20.068Z,24.21
2019-04-20T16:07:54.921Z,24.58
2019-04-20T16:10:21.157Z,24.17
2019-04-20T16:13:02.034Z,24.64
2019-04-20T16:15:22.020Z,24.29
2019-04-20T16:17:53.100Z,24.81
2019-04-20T16:20:23.528Z,24.49
2019-04-20T16:22:52.328Z,25.34
2019-04-20T16:25:23.494Z,23.98
2019-04-20T16:27:53.770Z,23.96
2019-04-20T16:30:23.356Z,24.03
2019-04-20T16:32:52.567Z,24.32
2019-04-20T16:35:22.581Z,23.83
2019-04-20T16:37:52.695Z,24.67
2019-04-20T16:40:23.309Z,24.43
2019-04-20T16:42:52.379Z,24.55
2019-04-20T16:45:21.417Z,25.27
2019-04-20T16:47:50.273Z,25.00
2019-04-20T16:50:19.450Z,24.13
2019-04-20T16:52:48.815Z,24.88
2019-04-20T16:55:18.831Z,24.77
2019-04-20T16:57:49.642Z,25.00
2019-04-20T17:00:19.859Z,25.03
2019-04-20T17:02:50.117Z,24.99
2019-04-20T17:05:19.158Z,25.16
2019-04-20T17:07:50.880Z,25.62
2019-04-20T17:10:23.505Z,24.09
2019-04-20T17:12:53.694Z,24.01
2019-04-20T17:15:23.688Z,24.12
2019-04-20T17:17:53.795Z,23.90
2019-04-20T17:20:25.241Z,24.54
2019-04-20T17:22:54.334Z,23.96
2019-04-20T17:25:23.931Z,24.60
2019-04-20T17:28:07.287Z,23.90
2019-04-20T17:30:47.819Z,23.79
2019-04-20T17:33:21.299Z,23.42
2019-04-20T17:35:57.271Z,23.68
2019-04-20T17:38:20.670Z,24.07
2019-04-20T17:41:02.999Z,24.43
2019-04-20T17:43:29.138Z,22.78
2019-04-20T17:46:02.217Z,23.67
2019-04-20T17:48:33.798Z,23.35
2019-04-20T17:51:13.978Z,23.13
2019-04-20T17:53:49.061Z,23.41
2019-04-20T17:56:12.453Z,23.42
2019-04-20T17:58:41.529Z,23.44
2019-04-20T18:01:41.233Z,22.80
2019-04-20T18:04:36.650Z,22.51
2019-04-20T18:06:52.597Z,22.21
2019-04-20T18:09:34.924Z,21.19
2019-04-20T18:11:46.759Z,21.29
2019-04-20T18:14:28.514Z,21.48
2019-04-20T18:17:05.945Z,21.10
2019-04-20T18:19:34.765Z,20.59
2019-04-20T18:22:05.853Z,20.70
2019-04-20T18:24:55.827Z,20.96
2019-04-20T18:27:27.878Z,20.27
2019-04-20T18:29:53.396Z,20.46
2019-04-20T18:32:19.712Z,20.51
2019-04-20T18:35:03.525Z,20.08
2019-04-20T18:37:31.029Z,19.99
2019-04-20T18:40:06.230Z,20.02
2019-04-20T18:42:37.194Z,19.66
2019-04-20T18:45:21.938Z,19.59
2019-04-20T18:47:48.982Z,19.75
2019-04-20T18:50:11.346Z,19.72
2019-04-20T18:52:35.682Z,19.61
2019-04-20T18:55:13.785Z,19.61
2019-04-20T18:57:38.327Z,19.58
2019-04-20T19:00:18.008Z,19.54
2019-04-20T19:02:46.834Z,19.56
2019-04-20T19:05:13.637Z,19.30
2019-04-20T19:07:52.789Z,18.98
2019-04-20T19:10:22.983Z,18.94
2019-04-20T19:12:54.330Z,18.74
2019-04-20T19:15:55.203Z,18.50
2019-04-20T19:18:23.826Z,18.48
2019-04-20T19:20:43.210Z,18.37
2019-04-20T19:23:12.349Z,18.27
2019-04-20T19:25:42.476Z,18.19
2019-04-20T19:28:14.486Z,18.17
2019-04-20T19:30:50.258Z,18.08
2019-04-20T19:33:30.055Z,18.10
2019-04-20T19:35:53.097Z,17.93
2019-04-20T19:38:20.893Z,17.98
2019-04-20T19:40:56.536Z,17.97
2019-04-20T19:43:26.637Z,17.84
2019-04-20T19:46:31.202Z,17.87
2019-04-20T19:48:36.250Z,18.00
2019-04-20T19:51:10.179Z,18.01
2019-04-20T19:53:36.659Z,17.80
2019-04-20T19:56:04.044Z,17.44
2019-04-20T19:58:35.941Z,16.98
2019-04-20T20:00:56.308Z,17.45
2019-04-20T20:03:25.930Z,17.59
2019-04-20T20:05:57.504Z,17.38
2019-04-20T20:08:29.494Z,17.34
2019-04-20T20:10:59.187Z,17.38
2019-04-20T20:13:34.508Z,17.45
2019-04-20T20:16:07.015Z,17.05
2019-04-20T20:18:41.110Z,17.37
2019-04-20T20:21:13.847Z,17.43
2019-04-20T20:23:29.976Z,17.43
2019-04-20T20:26:01.936Z,17.38
2019-04-20T20:28:37.039Z,16.98
2019-04-20T20:31:08.661Z,17.10
2019-04-20T20:33:43.915Z,17.18
2019-04-20T20:36:06.605Z,17.32
2019-04-20T20:38:37.749Z,17.20
2019-04-20T20:41:12.655Z,17.26
2019-04-20T20:43:47.431Z,17.27
2019-04-20T20:46:18.557Z,17.18
2019-04-20T20:48:57.480Z,17.32
2019-04-20T20:51:22.905Z,17.26
2019-04-20T20:53:49.859Z,17.24
2019-04-20T20:56:14.998Z,17.44
2019-04-20T20:58:48.597Z,17.37
2019-04-20T21:01:12.926Z,17.00
2019-04-20T21:03:42.558Z,17.00
2019-04-20T21:06:09.777Z,17.23
2019-04-20T21:08:45.927Z,17.12
2019-04-20T21:11:13.201Z,17.12
2019-04-20T21:13:46.489Z,17.18
2019-04-20T21:16:17.284Z,17.17
2019-04-20T21:18:55.260Z,17.03
2019-04-20T21:21:31.468Z,17.04
2019-04-20T21:23:53.205Z,17.10
2019-04-20T21:26:21.653Z,17.04
2019-04-20T21:28:44.177Z,16.80
2019-04-20T21:31:18.829Z,16.77
2019-04-20T21:33:44.863Z,16.89
2019-04-20T21:36:19.085Z,16.74
2019-04-20T21:38:45.156Z,16.72
2019-04-20T21:41:19.814Z,16.81
2019-04-20T21:43:48.113Z,16.94
2019-04-20T21:46:18.640Z,16.87
2019-04-20T21:49:00.749Z,16.85
2019-04-20T21:51:30.387Z,16.84
2019-04-20T21:53:48.939Z,16.86
2019-04-20T21:56:17.848Z,16.85
2019-04-20T21:58:50.526Z,16.83
2019-04-20T22:01:28.595Z,16.77
2019-04-20T22:03:50.260Z,16.85
2019-04-20T22:06:20.280Z,16.74
2019-04-20T22:08:54.538Z,16.82
2019-04-20T22:11:20.014Z,16.79
2019-04-20T22:13:50.899Z,16.65
2019-04-20T22:16:20.802Z,16.52
2019-04-20T22:18:58.279Z,16.45
2019-04-20T22:21:26.549Z,16.59
2019-04-20T22:24:04.186Z,16.60
2019-04-20T22:26:30.735Z,16.46
2019-04-20T22:28:54.178Z,16.51
2019-04-20T22:31:24.404Z,16.40
2019-04-20T22:33:54.391Z,16.53
2019-04-20T22:36:24.787Z,16.58
2019-04-20T22:39:13.735Z,15.58
2019-04-20T22:41:52.435Z,16.18
2019-04-20T22:44:21.045Z,16.29
2019-04-20T22:46:50.084Z,16.28
2019-04-20T22:49:35.924Z,16.35
2019-04-20T22:51:58.126Z,16.24
2019-04-20T22:54:37.287Z,15.87
2019-04-20T22:57:01.675Z,15.49
2019-04-20T22:59:30.362Z,15.82
2019-04-20T23:01:58.210Z,15.74
2019-04-20T23:04:24.730Z,15.84
2019-04-20T23:06:55.546Z,15.75
2019-04-20T23:09:26.810Z,15.79
2019-04-20T23:12:03.790Z,15.69
2019-04-20T23:14:26.606Z,15.76
2019-04-20T23:16:57.466Z,15.25
2019-04-20T23:19:35.623Z,15.50
2019-04-20T23:22:01.258Z,15.51
2019-04-20T23:24:29.055Z,15.69
2019-04-20T23:26:59.490Z,15.50
2019-04-20T23:29:32.714Z,15.46
2019-04-20T23:32:04.199Z,15.56
2019-04-20T23:34:32.285Z,15.43
2019-04-20T23:37:00.930Z,15.14
2019-04-20T23:39:35.357Z,15.39
2019-04-20T23:42:08.430Z,15.08
2019-04-20T23:44:56.023Z,15.06
2019-04-20T23:47:25.396Z,15.03
2019-04-20T23:50:12.398Z,14.99
2019-04-20T23:52:49.148Z,14.95
2019-04-20T23:55:03.011Z,15.16
2019-04-20T23:57:27.694Z,15.10
2019-04-20T23:59:56.585Z,15.19
